createdAt,value
2023-04-01T00:00:19.372Z,0.43
2023-04-01T00:01:18.871Z,0.43
2023-04-01T00:02:19.373Z,0.44
2023-04-01T00:03:20.519Z,0.42
2023-04-01T00:04:19.993Z,0.44
2023-04-01T00:05:20.195Z,0.44
2023-04-01T00:06:20.554Z,0.43
2023-04-01T00:07:23.486Z,0.41
2023-04-01T00:08:21.581Z,0.38
2023-04-01T00:09:21.695Z,0.36
2023-04-01T00:10:22.094Z,0.36
2023-04-01T00:11:22.429Z,0.38
2023-04-01T00:12:22.730Z,0.32
2023-04-01T00:13:23.545Z,0.35
2023-04-01T00:14:23.452Z,0.38
2023-04-01T00:15:23.785Z,0.36
2023-04-01T00:16:24.181Z,0.33
2023-04-01T00:17:24.661Z,0.33
2023-04-01T00:18:25.236Z,0.33
2023-04-01T00:19:25.139Z,0.33
2023-04-01T00:20:25.869Z,0.32
2023-04-01T00:21:25.802Z,0.29
2023-04-01T00:22:27.462Z,0.26
2023-04-01T00:23:26.907Z,0.25
2023-04-01T00:24:26.916Z,0.26
2023-04-01T00:25:27.308Z,0.31
2023-04-01T00:26:27.867Z,0.27
2023-04-01T00:27:27.959Z,0.24
2023-04-01T00:28:28.676Z,0.27
2023-04-01T00:29:31.577Z,0.25
2023-04-01T00:30:29.206Z,0.31
2023-04-01T00:31:29.441Z,0.29
2023-04-01T00:32:30.638Z,0.25
2023-04-01T00:33:30.349Z,0.28
2023-04-01T00:34:30.572Z,0.31
2023-04-01T00:35:30.953Z,0.31
2023-04-01T00:36:31.158Z,0.27
2023-04-01T00:37:31.622Z,0.25
2023-04-01T00:38:31.926Z,0.21
2023-04-01T00:39:33.269Z,0.2
2023-04-01T00:40:39.015Z,0.24
2023-04-01T00:41:36.153Z,0.26
2023-04-01T00:42:36.770Z,0.26
2023-04-01T00:43:37.085Z,0.27
2023-04-01T00:44:38.623Z,0.27
2023-04-01T00:45:40.389Z,0.23
2023-04-01T00:46:38.078Z,0.2
2023-04-01T00:47:38.474Z,0.18
2023-04-01T00:48:44.376Z,0.16
2023-04-01T00:49:45.224Z,0.19
2023-04-01T00:50:50.561Z,0.22
2023-04-01T00:51:51.382Z,0.22
2023-04-01T00:52:48.719Z,0.21
2023-04-01T00:53:52.228Z,0.18
2023-04-01T00:54:54.573Z,0.18
2023-04-01T00:55:58.571Z,0.17
2023-04-01T00:57:59.201Z,0.19
2023-04-01T00:59:01.698Z,0.16
2023-04-01T00:59:59.412Z,0.16
2023-04-01T01:01:01.580Z,0.19
2023-04-01T01:02:01.627Z,0.17
2023-04-01T01:03:00.204Z,0.13
2023-04-01T01:04:00.399Z,0.17
2023-04-01T01:05:01.389Z,0.15
2023-04-01T01:16:33.448Z,0.04
2023-04-01T01:36:16.988Z,0.06
2023-04-01T01:37:20.143Z,0.01
2023-04-01T01:38:26.521Z,0
2023-04-01T01:39:21.498Z,-0.01
2023-04-01T01:40:21.492Z,0
2023-04-01T01:41:21.916Z,0.01
2023-04-01T01:42:21.814Z,0.02
2023-04-01T01:43:24.763Z,0.01
2023-04-01T01:44:24.064Z,0.04
2023-04-01T01:45:26.968Z,0.03
2023-04-01T01:46:27.173Z,0.04
2023-04-01T01:47:25.549Z,0.05
2023-04-01T01:48:27.803Z,0.03
2023-04-01T01:49:29.741Z,0
2023-04-01T01:50:28.024Z,-0.02
2023-04-01T01:51:29.254Z,-0.01
2023-04-01T01:52:28.945Z,-0.02
2023-04-01T01:53:28.255Z,-0.04
2023-04-01T01:54:28.676Z,0
2023-04-01T01:55:35.017Z,-0.03
2023-04-01T01:56:35.377Z,-0.06
2023-04-01T01:57:37.454Z,-0.1
2023-04-01T01:58:38.709Z,-0.13
2023-04-01T01:59:40.656Z,-0.13
2023-04-01T02:00:39.144Z,-0.13
2023-04-01T02:01:42.880Z,-0.1
2023-04-01T02:02:48.640Z,-0.11
2023-04-01T02:03:43.466Z,-0.12
2023-04-01T02:04:44.637Z,-0.14
2023-04-01T02:05:42.248Z,-0.1
2023-04-01T02:06:49.419Z,-0.12
2023-04-01T02:07:53.319Z,-0.13
2023-04-01T02:09:52.683Z,-0.1
2023-04-01T02:12:00.503Z,-0.16
2023-04-01T02:13:02.772Z,-0.16
2023-04-01T02:14:07.496Z,-0.16
2023-04-01T02:15:11.486Z,-0.2
2023-04-01T02:18:14.365Z,-0.21
2023-04-01T02:19:14.374Z,-0.18
2023-04-01T02:20:18.592Z,-0.19
2023-04-01T02:21:17.984Z,-0.19
2023-04-01T02:22:23.300Z,-0.24
2023-04-01T02:23:21.463Z,-0.24
2023-04-01T02:24:23.131Z,-0.21
2023-04-01T02:25:28.652Z,-0.16
2023-04-01T02:26:27.207Z,-0.16
2023-04-01T02:27:29.770Z,-0.16
2023-04-01T02:28:31.438Z,-0.2
2023-04-01T02:29:29.101Z,-0.2
2023-04-01T02:30:32.172Z,-0.2
2023-04-01T02:31:30.092Z,-0.2
2023-04-01T02:32:32.715Z,-0.17
2023-04-01T02:33:31.772Z,-0.23
2023-04-01T02:34:30.757Z,-0.26
2023-04-01T02:35:31.478Z,-0.25
2023-04-01T02:36:32.323Z,-0.22
2023-04-01T02:37:33.313Z,-0.22
2023-04-01T02:38:32.165Z,-0.16
2023-04-01T02:39:32.246Z,-0.19
2023-04-01T02:41:43.607Z,-0.17
2023-04-01T02:42:41.449Z,-0.16
2023-04-01T02:43:41.569Z,-0.15
2023-04-01T02:44:41.834Z,-0.13
2023-04-01T02:45:42.002Z,-0.13
2023-04-01T02:46:42.726Z,-0.16
2023-04-01T02:47:42.757Z,-0.21
2023-04-01T02:48:43.140Z,-0.26
2023-04-01T02:49:45.218Z,-0.27
2023-04-01T02:50:43.769Z,-0.27
2023-04-01T02:51:44.239Z,-0.29
2023-04-01T02:52:44.400Z,-0.31
2023-04-01T02:53:44.924Z,-0.31
2023-04-01T02:54:45.233Z,-0.32
2023-04-01T02:55:45.863Z,-0.31
2023-04-01T02:56:45.875Z,-0.24
2023-04-01T02:57:46.185Z,-0.27
2023-04-01T02:58:47.103Z,-0.28
2023-04-01T02:59:46.903Z,-0.27
2023-04-01T03:00:47.367Z,-0.27
2023-04-01T03:01:47.554Z,-0.24
2023-04-01T03:02:48.141Z,-0.24
2023-04-01T03:03:48.365Z,-0.25
2023-04-01T03:04:49.641Z,-0.24
2023-04-01T03:05:49.007Z,-0.28
2023-04-01T03:06:49.519Z,-0.29
2023-04-01T03:07:49.630Z,-0.31
2023-04-01T03:08:50.242Z,-0.33
2023-04-01T03:09:50.364Z,-0.34
2023-04-01T03:10:51.202Z,-0.33
2023-04-01T03:11:51.194Z,-0.33
2023-04-01T03:12:52.739Z,-0.32
2023-04-01T03:13:51.939Z,-0.34
2023-04-01T03:14:52.143Z,-0.32
2023-04-01T03:15:52.771Z,-0.32
2023-04-01T03:16:52.841Z,-0.26
2023-04-01T03:17:53.130Z,-0.25
2023-04-01T03:18:53.700Z,-0.19
2023-04-01T03:19:53.767Z,-0.2
2023-04-01T03:20:54.214Z,-0.2
2023-04-01T03:21:54.449Z,-0.22
2023-04-01T03:22:54.838Z,-0.21
2023-04-01T03:23:55.264Z,-0.22
2023-04-01T03:24:55.691Z,-0.18
2023-04-01T03:25:55.962Z,-0.18
2023-04-01T03:26:59.072Z,-0.19
2023-04-01T03:27:56.521Z,-0.21
2023-04-01T03:28:57.141Z,-0.19
2023-04-01T03:29:57.285Z,-0.13
2023-04-01T03:30:57.894Z,-0.11
2023-04-01T03:31:57.987Z,-0.1
2023-04-01T03:32:59.363Z,-0.17
2023-04-01T03:33:59.035Z,-0.22
2023-04-01T03:34:59.014Z,-0.19
2023-04-01T03:35:59.696Z,-0.2
2023-04-01T03:37:00.056Z,-0.19
2023-04-01T03:38:00.113Z,-0.22
2023-04-01T03:39:00.578Z,-0.22
2023-04-01T03:40:00.704Z,-0.26
2023-04-01T03:41:00.996Z,-0.27
2023-04-01T03:42:01.326Z,-0.26
2023-04-01T03:43:01.890Z,-0.27
2023-04-01T03:44:02.165Z,-0.24
2023-04-01T03:45:03.688Z,-0.26
2023-04-01T03:46:02.915Z,-0.25
2023-04-01T03:47:03.186Z,-0.24
2023-04-01T03:48:03.718Z,-0.27
2023-04-01T03:49:04.045Z,-0.27
2023-04-01T03:50:05.181Z,-0.23
2023-04-01T03:51:08.841Z,-0.2
2023-04-01T03:52:10.607Z,-0.23
2023-04-01T03:53:08.616Z,-0.24
2023-04-01T03:54:08.665Z,-0.26
2023-04-01T03:55:09.174Z,-0.25
2023-04-01T03:56:09.900Z,-0.22
2023-04-01T03:57:09.521Z,-0.19
2023-04-01T03:58:10.232Z,-0.16
2023-04-01T03:59:10.657Z,-0.21
2023-04-01T04:00:13.827Z,-0.22
2023-04-01T04:01:19.169Z,-0.22
2023-04-01T04:02:13.041Z,-0.22
2023-04-01T04:03:14.587Z,-0.26
2023-04-01T04:04:13.784Z,-0.22
2023-04-01T04:05:12.752Z,-0.17
2023-04-01T04:06:14.810Z,-0.14
2023-04-01T04:07:13.469Z,-0.15
2023-04-01T04:08:13.686Z,-0.13
2023-04-01T04:09:14.212Z,-0.17
2023-04-01T04:10:14.416Z,-0.18
2023-04-01T04:11:14.935Z,-0.18
2023-04-01T04:12:15.136Z,-0.18
2023-04-01T04:13:15.545Z,-0.22
2023-04-01T04:14:15.869Z,-0.18
2023-04-01T04:15:16.492Z,-0.2
2023-04-01T04:16:17.959Z,-0.17
2023-04-01T04:17:16.834Z,-0.15
2023-04-01T04:18:17.252Z,-0.15
2023-04-01T04:19:20.622Z,-0.15
2023-04-01T04:20:18.075Z,-0.15
2023-04-01T04:21:18.380Z,-0.15
2023-04-01T04:22:18.695Z,-0.18
2023-04-01T04:23:19.414Z,-0.14
2023-04-01T04:24:19.531Z,-0.11
2023-04-01T04:25:19.739Z,-0.12
2023-04-01T04:26:20.159Z,-0.07
2023-04-01T04:27:22.129Z,-0.08
2023-04-01T04:28:20.784Z,-0.06
2023-04-01T04:29:21.308Z,-0.05
2023-04-01T04:30:22.559Z,-0.07
2023-04-01T04:31:24.200Z,-0.06
2023-04-01T04:32:22.251Z,-0.06
2023-04-01T04:33:23.677Z,-0.07
2023-04-01T04:34:23.488Z,-0.1
2023-04-01T04:35:23.286Z,-0.1
2023-04-01T04:36:23.499Z,0
2023-04-01T04:37:24.014Z,-0.03
2023-04-01T04:38:24.836Z,-0.05
2023-04-01T04:39:24.750Z,-0.01
2023-04-01T04:40:25.069Z,-0.02
2023-04-01T04:41:25.467Z,0.02
2023-04-01T04:42:26.943Z,0.02
2023-04-01T04:43:26.010Z,0.03
2023-04-01T04:44:26.618Z,0.07
2023-04-01T04:45:26.624Z,0.06
2023-04-01T04:46:27.172Z,0.08
2023-04-01T04:47:27.580Z,0.05
2023-04-01T04:48:27.785Z,0.05
2023-04-01T04:49:28.158Z,0.04
2023-04-01T04:50:28.399Z,-0.01
2023-04-01T04:51:28.713Z,-0.03
2023-04-01T04:52:29.001Z,-0.02
2023-04-01T04:53:29.865Z,-0.04
2023-04-01T04:54:30.592Z,-0.02
2023-04-01T04:55:30.104Z,0.02
2023-04-01T04:56:30.606Z,0
2023-04-01T04:57:31.594Z,0.01
2023-04-01T04:58:31.222Z,-0.02
2023-04-01T04:59:32.241Z,0.01
2023-04-01T05:00:31.875Z,0.03
2023-04-01T05:01:32.510Z,0.06
2023-04-01T05:02:32.765Z,0.06
2023-04-01T05:03:33.030Z,0.03
2023-04-01T05:05:35.372Z,0.07
2023-04-01T05:06:35.443Z,0.09
2023-04-01T05:07:36.083Z,0.11
2023-04-01T05:08:37.328Z,0.14
2023-04-01T05:09:36.719Z,0.09
2023-04-01T05:10:37.145Z,0.1
2023-04-01T05:11:37.340Z,0.14
2023-04-01T05:12:40.192Z,0.14
2023-04-01T05:13:37.972Z,0.17
2023-04-01T05:14:38.351Z,0.19
2023-04-01T05:15:38.797Z,0.16
2023-04-01T05:16:39.069Z,0.15
2023-04-01T05:17:42.262Z,0.14
2023-04-01T05:18:39.919Z,0.15
2023-04-01T05:19:40.574Z,0.13
2023-04-01T05:20:40.489Z,0.18
2023-04-01T05:21:40.685Z,0.21
2023-04-01T05:22:41.443Z,0.2
2023-04-01T05:23:41.638Z,0.21
2023-04-01T05:24:41.746Z,0.23
2023-04-01T05:25:42.357Z,0.2
2023-04-01T05:26:42.458Z,0.25
2023-04-01T05:27:42.816Z,0.23
2023-04-01T05:28:43.503Z,0.25
2023-04-01T05:29:43.505Z,0.24
2023-04-01T05:30:45.126Z,0.24
2023-04-01T05:31:44.236Z,0.26
2023-04-01T05:32:44.892Z,0.26
2023-04-01T05:33:44.823Z,0.27
2023-04-01T05:34:45.926Z,0.28
2023-04-01T05:35:45.867Z,0.26
2023-04-01T05:36:46.028Z,0.33
2023-04-01T05:37:49.083Z,0.31
2023-04-01T05:38:47.050Z,0.27
2023-04-01T05:39:47.274Z,0.29
2023-04-01T05:40:47.474Z,0.33
2023-04-01T05:41:47.900Z,0.26
2023-04-01T05:42:48.002Z,0.28
2023-04-01T05:43:48.418Z,0.29
2023-04-01T05:44:48.732Z,0.28
2023-04-01T05:45:50.104Z,0.27
2023-04-01T05:46:49.504Z,0.24
2023-04-01T05:47:50.094Z,0.26
2023-04-01T05:48:50.316Z,0.23
2023-04-01T05:49:50.491Z,0.19
2023-04-01T05:50:50.919Z,0.2
2023-04-01T05:51:51.653Z,0.17
2023-04-01T05:52:53.973Z,0.16
2023-04-01T05:53:51.870Z,0.19
2023-04-01T05:54:52.406Z,0.23
2023-04-01T05:55:52.747Z,0.25
2023-04-01T05:56:53.137Z,0.26
2023-04-01T05:57:53.539Z,0.26
2023-04-01T05:58:54.993Z,0.27
2023-04-01T05:59:54.153Z,0.25
2023-04-01T06:01:59.867Z,0.29
2023-04-01T06:03:02.207Z,0.34
2023-04-01T06:03:59.849Z,0.34
2023-04-01T06:06:03.778Z,0.36
2023-04-01T06:56:15.443Z,0.36
2023-04-01T07:02:36.378Z,0.44
2023-04-01T07:08:40.973Z,0.47
2023-04-01T07:09:42.885Z,0.51
2023-04-01T07:11:46.148Z,0.51
2023-04-01T07:12:52.799Z,0.51
2023-04-01T07:13:56.813Z,0.51
2023-04-01T07:14:57.315Z,0.5
2023-04-01T07:18:07.109Z,0.6
2023-04-01T07:26:25.251Z,0.7
2023-04-01T07:27:24.758Z,0.59
2023-04-01T07:28:24.346Z,0.58
2023-04-01T07:29:27.214Z,0.62
2023-04-01T07:36:55.028Z,0.6
2023-04-01T08:06:21.114Z,1.07
2023-04-01T08:07:18.970Z,1.04
2023-04-01T08:20:54.668Z,1.14
2023-04-01T08:21:53.679Z,1.18
2023-04-01T08:22:59.746Z,1.27
2023-04-01T08:24:03.757Z,1.22
2023-04-01T08:25:05.582Z,1.12
2023-04-01T08:52:25.206Z,1.69
2023-04-01T11:44:34.904Z,2.75
2023-04-01T12:55:47.186Z,2.72
2023-04-01T13:42:31.066Z,2.81
2023-04-01T14:50:22.628Z,2.07
2023-04-01T14:52:31.641Z,2.04
2023-04-01T14:57:34.569Z,2
2023-04-01T14:59:42.632Z,2.03
2023-04-01T15:47:46.869Z,1.52
2023-04-01T16:36:56.987Z,1.15
2023-04-01T16:47:31.066Z,1.12
2023-04-01T16:49:41.714Z,1.12
2023-04-01T16:55:53.115Z,1.11
2023-04-01T16:56:55.614Z,1.1
2023-04-01T16:57:58.156Z,1.09
2023-04-01T17:05:13.365Z,1.13
2023-04-01T17:41:08.166Z,1.11
2023-04-01T17:52:38.959Z,1.17
2023-04-01T18:24:02.433Z,0.92
2023-04-01T18:40:35.216Z,0.82
2023-04-01T18:41:37.044Z,0.79
2023-04-01T18:42:42.455Z,0.79
2023-04-01T18:51:04.126Z,0.81
2023-04-01T18:52:09.357Z,0.8
2023-04-01T18:53:15.811Z,0.81
2023-04-01T18:57:15.259Z,0.81
2023-04-01T18:59:26.192Z,0.82
2023-04-01T19:08:41.255Z,0.77
2023-04-01T19:09:46.946Z,0.78
2023-04-01T19:36:57.775Z,0.73
2023-04-01T19:37:59.213Z,0.74
2023-04-01T20:04:56.424Z,0.65
2023-04-01T20:20:35.815Z,0.65
2023-04-01T20:24:46.686Z,0.65
2023-04-01T20:26:55.699Z,0.64
2023-04-01T20:50:53.143Z,0.5
2023-04-01T22:07:12.892Z,0.36
2023-04-01T22:27:11.188Z,0.14
2023-04-01T22:28:06.083Z,0.14
2023-04-01T22:31:15.517Z,0.09
2023-04-01T22:32:21.993Z,0.1
2023-04-01T22:43:42.420Z,0.04
2023-04-01T22:56:21.419Z,-0.04
2023-04-01T22:58:33.910Z,-0.02
2023-04-01T23:01:38.017Z,-0.01
2023-04-01T23:02:43.495Z,-0.01
2023-04-01T23:04:43.222Z,-0.04
2023-04-01T23:06:47.592Z,-0.02
2023-04-01T23:09:53.604Z,-0.02
2023-04-01T23:13:02.576Z,-0.05
2023-04-01T23:15:04.876Z,-0.07
2023-04-01T23:16:06.754Z,-0.02
2023-04-01T23:27:34.833Z,-0.07
2023-04-01T23:29:28.812Z,-0.05
2023-04-01T23:32:34.476Z,-0.09
2023-04-01T23:33:34.777Z,-0.1
2023-04-01T23:34:36.714Z,-0.09
2023-04-01T23:35:47.181Z,-0.12
2023-04-01T23:36:48.597Z,-0.11
2023-04-01T23:37:41.542Z,-0.08
2023-04-01T23:38:44.114Z,-0.09
2023-04-01T23:39:44.629Z,-0.12
2023-04-01T23:40:43.094Z,-0.15
2023-04-01T23:41:42.596Z,-0.18
2023-04-01T23:42:43.117Z,-0.19
2023-04-01T23:43:45.281Z,-0.19
2023-04-01T23:44:44.567Z,-0.21
2023-04-01T23:45:44.072Z,-0.21
2023-04-01T23:46:47.442Z,-0.23
2023-04-01T23:47:48.416Z,-0.26
2023-04-01T23:48:47.827Z,-0.25
2023-04-01T23:50:51.615Z,-0.27
2023-04-01T23:51:59.163Z,-0.27
2023-04-01T23:56:04.422Z,-0.26
